Time;durP1;ratioP1;P1;durP2;ratioP2;P2;SDS_P1;SDS_P2;PMS_P1;PMS_P2;Temp;Humidity;BMP_temperature;BMP_pressure;BME280_temperature;BME280_humidity;BME280_pressure;Samples;Min_cycle;Max_cycle;Signal;HPM_P1;HPM_P2
2022/08/07 00:08:10;;;;;;;0.80;0.50;;;16.00;93.00;;;;;;6636218;88;20231;-76
2022/08/07 00:18:11;;;;;;;0.50;0.20;;;16.00;93.80;;;;;;6634793;88;20185;-76
2022/08/07 00:28:11;;;;;;;0.60;0.30;;;15.70;95.60;;;;;;6634998;88;20579;-74
2022/08/07 00:38:12;;;;;;;0.80;0.40;;;15.50;97.20;;;;;;6628529;88;20317;-73
2022/08/07 00:48:12;;;;;;;0.73;0.30;;;15.40;98.70;;;;;;6624768;88;20727;-73
2022/08/07 00:58:13;;;;;;;0.88;0.40;;;15.50;99.70;;;;;;6626406;88;20324;-76
2022/08/07 01:08:13;;;;;;;1.45;0.50;;;15.40;99.90;;;;;;6627860;88;20222;-75
2022/08/07 01:18:14;;;;;;;0.60;0.30;;;15.10;99.90;;;;;;6632867;88;20209;-76
2022/08/07 01:28:15;;;;;;;0.80;0.40;;;15.00;99.90;;;;;;6628342;88;20207;-76
2022/08/07 01:38:16;;;;;;;0.87;0.33;;;14.90;99.90;;;;;;6636869;88;20692;-77
2022/08/07 01:48:16;;;;;;;0.60;0.30;;;14.80;99.90;;;;;;6625794;88;20639;-76
2022/08/07 01:58:20;;;;;;;0.93;0.40;;;14.60;99.90;;;;;;6642939;88;20325;-76
2022/08/07 02:08:25;;;;;;;0.62;0.30;;;14.40;99.90;;;;;;6637925;88;20217;-76
2022/08/07 02:18:28;;;;;;;0.60;0.43;;;14.30;99.90;;;;;;6640459;88;20215;-76
2022/08/07 02:28:31;;;;;;;0.90;0.30;;;14.10;99.90;;;;;;6637888;88;20247;-75
2022/08/07 02:38:35;;;;;;;0.50;0.30;;;14.00;99.90;;;;;;6641587;88;20303;-75
2022/08/07 02:48:37;;;;;;;0.77;0.32;;;13.80;99.90;;;;;;6628980;88;20321;-75
2022/08/07 02:58:39;;;;;;;0.90;0.30;;;13.80;99.90;;;;;;6633839;88;20341;-75
2022/08/07 03:08:41;;;;;;;0.90;0.45;;;13.70;99.90;;;;;;6625408;88;20650;-76
2022/08/07 03:18:42;;;;;;;0.85;0.37;;;13.60;99.90;;;;;;6627139;88;20637;-74
2022/08/07 03:28:43;;;;;;;1.55;0.60;;;13.60;99.90;;;;;;6633065;88;20243;-74
2022/08/07 03:38:46;;;;;;;0.70;0.35;;;13.50;99.90;;;;;;6627209;88;20194;-74
2022/08/07 03:48:49;;;;;;;0.50;0.30;;;13.40;99.90;;;;;;6636523;88;20373;-74
2022/08/07 03:58:50;;;;;;;0.70;0.35;;;13.20;99.90;;;;;;6636617;88;20213;-75
2022/08/07 04:08:51;;;;;;;1.42;0.50;;;13.20;99.90;;;;;;6646472;88;20239;-74
2022/08/07 04:18:51;;;;;;;0.60;0.30;;;13.10;99.90;;;;;;6624159;88;20649;-75
2022/08/07 04:28:52;;;;;;;1.73;0.45;;;13.10;99.90;;;;;;6622768;88;20693;-77
2022/08/07 04:38:52;;;;;;;0.75;0.40;;;13.10;99.90;;;;;;6633934;88;20234;-74
2022/08/07 04:49:17;;;;;;;0.62;0.30;;;12.90;99.90;;;;;;6630098;88;20354;-74
2022/08/07 04:59:33;;;;;;;1.77;0.40;;;13.10;99.90;;;;;;6631624;88;20236;-74
2022/08/07 05:09:54;;;;;;;0.88;0.40;;;13.20;99.90;;;;;;6604207;78;20199;-76
2022/08/07 05:19:56;;;;;;;0.90;0.40;;;13.20;99.90;;;;;;6607648;88;20193;-76
2022/08/07 05:29:58;;;;;;;1.02;0.40;;;13.30;99.90;;;;;;6609577;88;20980;-76
2022/08/07 05:39:59;;;;;;;1.20;0.57;;;13.40;99.90;;;;;;6610558;88;20207;-77
2022/08/07 05:50:01;;;;;;;1.17;0.40;;;13.40;99.90;;;;;;6623828;88;20198;-76
2022/08/07 06:00:04;;;;;;;2.15;0.60;;;13.70;99.90;;;;;;6601450;88;20320;-77
2022/08/07 06:10:07;;;;;;;1.00;0.50;;;14.10;99.90;;;;;;6612836;88;20665;-77
2022/08/07 06:20:09;;;;;;;1.08;0.50;;;14.70;99.90;;;;;;6608646;88;20243;-77
2022/08/07 06:30:10;;;;;;;0.80;0.50;;;15.40;99.90;;;;;;6603466;88;20269;-77
2022/08/07 06:40:11;;;;;;;0.80;0.40;;;16.10;99.90;;;;;;6612029;88;20204;-78
2022/08/07 06:50:13;;;;;;;3.50;0.60;;;16.80;99.90;;;;;;6615090;88;20236;-78
2022/08/07 07:00:14;;;;;;;0.40;0.30;;;17.50;99.90;;;;;;6602645;88;20285;-78
2022/08/07 07:10:25;;;;;;;0.60;0.30;;;18.20;99.90;;;;;;6610593;88;20247;-78
2022/08/07 07:20:34;;;;;;;0.82;0.40;;;18.80;99.90;;;;;;6611291;88;20185;-78
2022/08/07 07:30:39;;;;;;;0.80;0.40;;;19.50;98.70;;;;;;6612532;88;20334;-79
2022/08/07 07:40:41;;;;;;;0.85;0.35;;;20.10;97.90;;;;;;6613328;88;20194;-77
2022/08/07 07:50:45;;;;;;;0.60;0.30;;;21.10;94.70;;;;;;6619745;88;20199;-78
2022/08/07 08:00:47;;;;;;;1.55;0.40;;;21.40;94.30;;;;;;6609561;88;20233;-79
2022/08/07 08:10:48;;;;;;;0.85;0.60;;;22.20;93.40;;;;;;6614922;89;20185;-79
2022/08/07 08:20:49;;;;;;;0.90;0.50;;;22.70;91.50;;;;;;6623105;88;20232;-82
2022/08/07 08:30:56;;;;;;;0.80;0.40;;;22.80;90.50;;;;;;6632565;88;20214;-81
2022/08/07 08:41:06;;;;;;;0.47;0.30;;;23.40;89.80;;;;;;6639940;88;20217;-79
2022/08/07 08:51:29;;;;;;;0.73;0.40;;;24.00;85.90;;;;;;6624095;89;20212;-79
2022/08/07 09:02:05;;;;;;;0.70;0.40;;;25.00;85.40;;;;;;6615387;88;20265;-78
2022/08/07 09:12:44;;;;;;;0.60;0.40;;;26.00;80.00;;;;;;6621317;89;20186;-81
2022/08/07 09:23:17;;;;;;;0.65;0.32;;;26.80;77.70;;;;;;6640538;89;20281;-80
2022/08/07 09:33:53;;;;;;;0.80;0.40;;;27.80;75.00;;;;;;6625310;88;20337;-81
2022/08/07 09:44:32;;;;;;;0.90;0.50;;;28.60;72.40;;;;;;6619317;89;20386;-80
2022/08/07 09:54:56;;;;;;;0.70;0.40;;;29.00;68.90;;;;;;6605267;89;20206;-80
2022/08/07 10:05:47;;;;;;;0.60;0.30;;;29.80;66.80;;;;;;6615221;89;20218;-79
2022/08/07 10:16:03;;;;;;;0.50;0.30;;;30.30;66.20;;;;;;6627428;88;20190;-80
2022/08/07 10:26:15;;;;;;;0.70;0.40;;;30.80;64.70;;;;;;6620735;88;20205;-77
2022/08/07 10:36:43;;;;;;;0.75;0.40;;;30.90;63.60;;;;;;6623813;88;20325;-77
2022/08/07 10:46:52;;;;;;;0.50;0.30;;;30.40;62.70;;;;;;6630668;88;20249;-79
2022/08/07 10:57:14;;;;;;;0.70;0.40;;;30.40;62.20;;;;;;6626984;88;20220;-78
2022/08/07 11:07:44;;;;;;;0.68;0.40;;;30.80;60.90;;;;;;6624466;78;21082;-76
2022/08/07 11:17:58;;;;;;;2.10;0.70;;;31.60;59.70;;;;;;6614472;88;20677;-81
2022/08/07 11:28:18;;;;;;;0.70;0.40;;;31.40;59.10;;;;;;6622604;89;20316;-82
2022/08/07 11:38:29;;;;;;;1.87;0.60;;;31.30;59.50;;;;;;6623245;89;20178;-80
2022/08/07 11:49:00;;;;;;;0.90;0.50;;;32.40;57.90;;;;;;6622880;89;20218;-82
2022/08/07 11:59:13;;;;;;;0.80;0.50;;;32.50;56.90;;;;;;6608536;90;20207;-79
2022/08/07 12:09:24;;;;;;;1.00;0.50;;;32.90;57.70;;;;;;6600911;89;20336;-79
2022/08/07 12:19:30;;;;;;;1.52;0.40;;;33.30;56.50;;;;;;6613979;89;20200;-80
2022/08/07 12:29:40;;;;;;;0.60;0.30;;;32.70;56.60;;;;;;6622905;89;20280;-84
2022/08/07 12:39:43;;;;;;;0.70;0.40;;;33.70;55.50;;;;;;6629793;89;20319;-83
2022/08/07 12:49:50;;;;;;;0.80;0.40;;;33.20;56.00;;;;;;6635466;89;20220;-81
2022/08/07 12:59:54;;;;;;;0.70;0.40;;;33.80;56.70;;;;;;6605954;90;20210;-80
2022/08/07 13:10:17;;;;;;;0.88;0.40;;;34.40;54.40;;;;;;6612782;89;20313;-78
2022/08/07 13:20:24;;;;;;;0.80;0.40;;;33.30;54.80;;;;;;6632303;89;20190;-80
2022/08/07 13:30:26;;;;;;;0.80;0.50;;;33.60;54.10;;;;;;6645389;88;20182;-79
2022/08/07 13:40:50;;;;;;;0.90;0.52;;;33.20;55.50;;;;;;6621733;88;20211;-80
2022/08/07 13:50:52;;;;;;;1.12;0.43;;;34.10;56.00;;;;;;6632011;88;20218;-80
2022/08/07 14:00:53;;;;;;;1.08;0.57;;;33.90;54.10;;;;;;6620481;88;20217;-78
2022/08/07 14:10:56;;;;;;;0.85;0.45;;;33.40;54.90;;;;;;6619625;88;20329;-79
2022/08/07 14:21:17;;;;;;;1.00;0.47;;;33.10;54.40;;;;;;6613139;88;20210;-80
2022/08/07 14:31:21;;;;;;;0.70;0.40;;;33.00;54.20;;;;;;6622476;88;20309;-77
2022/08/07 14:42:03;;;;;;;0.70;0.30;;;33.00;54.00;;;;;;6638518;78;20259;-78
2022/08/07 14:52:05;;;;;;;1.05;0.50;;;33.70;54.20;;;;;;6655735;88;20178;-78
2022/08/07 15:02:15;;;;;;;0.75;0.40;;;33.00;53.80;;;;;;6671412;88;20162;-81
2022/08/07 15:12:24;;;;;;;0.67;0.30;;;32.40;55.40;;;;;;6712854;88;20294;-77
2022/08/07 15:22:29;;;;;;;0.70;0.40;;;32.80;55.00;;;;;;6655256;88;20213;-77
2022/08/07 15:32:30;;;;;;;0.70;0.40;;;32.60;54.20;;;;;;6637074;88;20216;-77
2022/08/07 15:42:36;;;;;;;0.60;0.30;;;32.50;54.10;;;;;;6647508;88;20269;-77
2022/08/07 15:52:39;;;;;;;0.75;0.30;;;32.20;55.10;;;;;;6643166;88;20186;-77
2022/08/07 16:02:44;;;;;;;0.55;0.30;;;32.20;54.70;;;;;;6638249;88;20213;-78
2022/08/07 16:13:08;;;;;;;0.70;0.40;;;32.10;54.30;;;;;;6652445;88;20684;-77
2022/08/07 16:23:47;;;;;;;1.52;0.70;;;31.10;55.10;;;;;;6638897;88;20204;-77
2022/08/07 16:33:49;;;;;;;0.80;0.40;;;31.00;54.50;;;;;;6631799;89;20200;-78
2022/08/07 16:44:11;;;;;;;0.62;0.32;;;31.00;55.00;;;;;;6630875;88;20200;-78
2022/08/07 16:54:35;;;;;;;0.75;0.40;;;30.20;54.80;;;;;;6637814;88;20185;-76
2022/08/07 17:04:48;;;;;;;0.70;0.40;;;29.70;55.10;;;;;;6642255;88;20236;-78
2022/08/07 17:15:01;;;;;;;0.80;0.40;;;29.00;56.40;;;;;;6640782;88;20251;-77
2022/08/07 17:25:22;;;;;;;0.50;0.30;;;28.50;56.70;;;;;;6664355;88;20225;-79
2022/08/07 17:35:44;;;;;;;0.80;0.40;;;28.70;56.90;;;;;;6653634;88;20807;-76
2022/08/07 17:45:57;;;;;;;0.70;0.40;;;30.00;56.80;;;;;;6640293;88;20222;-77
2022/08/07 17:56:27;;;;;;;1.05;0.57;;;29.90;56.90;;;;;;6641056;88;20185;-78
2022/08/07 18:06:37;;;;;;;1.12;0.50;;;27.20;60.00;;;;;;6646007;88;20174;-77
2022/08/07 18:16:45;;;;;;;0.68;0.40;;;26.70;60.40;;;;;;6653171;88;20189;-76
2022/08/07 18:27:24;;;;;;;0.77;0.35;;;26.00;61.00;;;;;;6636171;88;20670;-77
2022/08/07 18:37:45;;;;;;;0.70;0.40;;;25.80;62.10;;;;;;6642304;88;20210;-77
2022/08/07 18:48:04;;;;;;;1.50;0.40;;;25.50;63.00;;;;;;6642689;88;20222;-77
2022/08/07 18:58:47;;;;;;;0.60;0.35;;;25.10;63.40;;;;;;6636267;88;20208;-76
2022/08/07 19:08:57;;;;;;;0.52;0.30;;;24.70;64.80;;;;;;6643784;88;20269;-77
2022/08/07 19:19:01;;;;;;;0.80;0.40;;;24.50;64.50;;;;;;6647491;88;20211;-77
2022/08/07 19:29:05;;;;;;;0.80;0.45;;;24.20;64.60;;;;;;6640369;88;20991;-77
2022/08/07 19:39:07;;;;;;;0.82;0.40;;;24.00;64.60;;;;;;6651324;88;20632;-76
2022/08/07 19:49:15;;;;;;;0.80;0.30;;;23.80;65.10;;;;;;6634334;88;20197;-76
2022/08/07 19:59:28;;;;;;;0.80;0.40;;;23.50;66.20;;;;;;6633270;88;20644;-76
2022/08/07 20:09:31;;;;;;;0.68;0.40;;;23.20;67.10;;;;;;6635176;88;20210;-76
2022/08/07 20:19:33;;;;;;;0.73;0.40;;;23.00;67.90;;;;;;6646149;88;20304;-76
2022/08/07 20:29:40;;;;;;;0.62;0.32;;;22.80;68.10;;;;;;6660810;88;20173;-78
2022/08/07 20:39:42;;;;;;;1.23;0.50;;;22.40;68.90;;;;;;6652388;88;20972;-76
2022/08/07 20:49:45;;;;;;;0.90;0.30;;;22.20;68.70;;;;;;6630278;88;20194;-76
2022/08/07 20:59:47;;;;;;;0.98;0.40;;;21.90;68.80;;;;;;6649659;88;20249;-76
2022/08/07 21:09:50;;;;;;;0.62;0.30;;;21.60;69.20;;;;;;6652150;88;20317;-76
2022/08/07 21:19:52;;;;;;;0.90;0.40;;;21.20;70.70;;;;;;6640100;88;20197;-76
2022/08/07 21:30:03;;;;;;;1.02;0.50;;;20.80;72.10;;;;;;6639653;88;20193;-76
2022/08/07 21:40:14;;;;;;;1.42;0.43;;;20.70;73.00;;;;;;6634123;88;20188;-76
2022/08/07 21:50:41;;;;;;;0.70;0.40;;;20.40;74.80;;;;;;6640403;88;20197;-75
2022/08/07 22:00:47;;;;;;;1.27;0.45;;;20.30;75.10;;;;;;6641060;88;20700;-76
2022/08/07 22:11:03;;;;;;;1.20;0.30;;;20.20;75.80;;;;;;6639150;88;20213;-76
2022/08/07 22:21:17;;;;;;;0.70;0.40;;;20.10;76.90;;;;;;6639179;88;20202;-75
2022/08/07 22:31:43;;;;;;;1.23;0.50;;;19.80;78.10;;;;;;6649925;88;20586;-75
2022/08/07 22:42:12;;;;;;;1.67;0.50;;;19.70;78.60;;;;;;6634884;88;20274;-76
2022/08/07 22:52:52;;;;;;;0.68;0.32;;;19.40;79.70;;;;;;6659328;88;20235;-75
2022/08/07 23:03:20;;;;;;;0.62;0.30;;;19.30;80.10;;;;;;6648245;88;20189;-76
2022/08/07 23:13:48;;;;;;;0.98;0.47;;;19.20;81.30;;;;;;6640700;88;20256;-76
2022/08/07 23:24:19;;;;;;;1.50;0.60;;;19.00;82.40;;;;;;6654461;88;20212;-77
2022/08/07 23:34:53;;;;;;;0.62;0.30;;;18.90;83.20;;;;;;6644730;88;20817;-76
2022/08/07 23:45:08;;;;;;;0.57;0.28;;;18.70;83.90;;;;;;6634968;88;20210;-74
2022/08/07 23:55:14;;;;;;;;;;;18.60;85.50;;;;;;6641550;88;20174;-76
